createdAt,value
2019-02-12T00:00:51.806Z,75.81
2019-02-12T00:03:20.455Z,76.00
2019-02-12T00:05:49.070Z,76.12
2019-02-12T00:08:17.655Z,76.19
2019-02-12T00:10:46.206Z,75.74
2019-02-12T00:13:14.793Z,76.23
2019-02-12T00:15:43.458Z,76.54
2019-02-12T00:18:12.087Z,76.86
2019-02-12T00:20:40.759Z,76.63
2019-02-12T00:23:09.331Z,77.19
2019-02-12T00:25:37.927Z,77.70
2019-02-12T00:28:06.432Z,77.92
2019-02-12T00:30:35.147Z,78.12
2019-02-12T00:33:03.961Z,79.78
2019-02-12T00:35:33.069Z,79.38
2019-02-12T00:38:01.733Z,79.25
2019-02-12T00:40:30.544Z,79.77
2019-02-12T00:42:59.084Z,79.89
2019-02-12T00:45:27.688Z,80.07
2019-02-12T00:47:56.460Z,80.43
2019-02-12T00:50:25.062Z,80.24
2019-02-12T00:52:53.891Z,80.97
2019-02-12T00:55:22.991Z,81.70
2019-02-12T00:57:51.892Z,82.16
2019-02-12T01:00:20.397Z,82.53
2019-02-12T01:02:48.837Z,83.55
2019-02-12T01:05:17.601Z,84.27
2019-02-12T01:07:46.898Z,84.55
2019-02-12T01:10:19.947Z,84.54
2019-02-12T01:12:48.619Z,84.74
2019-02-12T01:15:17.122Z,85.50
2019-02-12T01:17:45.771Z,87.93
2019-02-12T01:20:15.341Z,89.56
2019-02-12T01:22:44.060Z,91.41
2019-02-12T01:25:12.624Z,93.42
2019-02-12T01:27:41.426Z,93.45
2019-02-12T01:30:14.143Z,93.08
2019-02-12T01:32:44.344Z,92.90
2019-02-12T01:35:13.495Z,92.80
2019-02-12T01:37:42.285Z,93.18
2019-02-12T01:40:12.863Z,92.90
2019-02-12T01:42:41.656Z,92.99
2019-02-12T01:45:12.911Z,92.96
2019-02-12T01:47:41.763Z,92.79
2019-02-12T01:50:12.990Z,93.16
2019-02-12T01:52:42.010Z,93.17
2019-02-12T01:55:10.438Z,92.69
2019-02-12T01:57:39.879Z,92.40
2019-02-12T02:00:13.639Z,92.53
2019-02-12T02:02:42.876Z,92.20
2019-02-12T02:05:11.446Z,92.47
2019-02-12T02:07:40.059Z,92.33
2019-02-12T02:10:12.350Z,93.34
2019-02-12T02:12:41.473Z,93.89
2019-02-12T02:15:11.254Z,94.09
2019-02-12T02:17:39.866Z,94.21
2019-02-12T02:20:09.480Z,94.36
2019-02-12T02:22:39.433Z,94.55
2019-02-12T02:25:09.420Z,94.76
2019-02-12T02:27:39.023Z,95.00
2019-02-12T02:30:10.706Z,95.25
2019-02-12T02:32:39.426Z,95.69
2019-02-12T02:35:08.137Z,95.77
2019-02-12T02:37:38.462Z,96.29
2019-02-12T02:40:08.497Z,96.80
2019-02-12T02:42:37.897Z,97.00
2019-02-12T02:45:07.785Z,97.33
2019-02-12T02:47:36.414Z,97.12
2019-02-12T02:50:05.816Z,96.92
2019-02-12T02:52:35.760Z,96.95
2019-02-12T02:55:05.097Z,96.57
2019-02-12T02:57:33.656Z,96.79
2019-02-12T03:00:02.557Z,96.56
2019-02-12T03:02:31.171Z,96.85
2019-02-12T03:05:00.259Z,96.52
2019-02-12T03:07:28.947Z,96.81
2019-02-12T03:09:58.303Z,97.30
2019-02-12T03:12:28.704Z,96.77
2019-02-12T03:15:16.137Z,96.91
2019-02-12T03:17:45.843Z,96.74
2019-02-12T03:20:15.788Z,95.91
2019-02-12T03:22:45.725Z,95.04
2019-02-12T03:25:14.203Z,94.73
2019-02-12T03:27:42.810Z,94.59
2019-02-12T03:30:11.773Z,94.59
2019-02-12T03:32:40.320Z,94.87
2019-02-12T03:35:10.542Z,95.14
2019-02-12T03:37:39.051Z,94.89
2019-02-12T03:40:09.080Z,94.37
2019-02-12T03:42:37.904Z,94.47
2019-02-12T03:45:07.471Z,94.46
2019-02-12T03:47:36.150Z,94.52
2019-02-12T03:50:05.666Z,94.76
2019-02-12T03:52:34.647Z,94.01
2019-02-12T03:55:03.954Z,93.84
2019-02-12T03:57:32.746Z,94.29
2019-02-12T04:00:01.589Z,94.33
2019-02-12T04:02:30.287Z,94.50
2019-02-12T04:04:58.661Z,94.27
2019-02-12T04:07:27.276Z,94.49
2019-02-12T04:09:56.106Z,94.44
2019-02-12T04:12:25.214Z,94.63
2019-02-12T04:14:54.149Z,94.83
2019-02-12T04:17:22.865Z,95.40
2019-02-12T04:19:51.435Z,95.59
2019-02-12T04:22:22.467Z,95.42
2019-02-12T04:24:51.043Z,95.52
2019-02-12T04:27:19.675Z,95.19
2019-02-12T04:29:48.175Z,95.51
2019-02-12T04:32:16.694Z,95.02
2019-02-12T04:34:45.637Z,95.04
2019-02-12T04:37:14.225Z,95.26
2019-02-12T04:39:42.996Z,95.34
2019-02-12T04:42:12.589Z,95.82
2019-02-12T04:44:42.387Z,95.94
2019-02-12T04:47:11.182Z,96.49
2019-02-12T04:49:40.246Z,96.66
2019-02-12T04:52:08.754Z,96.69
2019-02-12T04:54:38.406Z,96.88
2019-02-12T04:57:06.911Z,97.00
2019-02-12T04:59:35.567Z,97.50
2019-02-12T05:02:04.177Z,97.37
2019-02-12T05:04:32.924Z,97.31
2019-02-12T05:07:01.564Z,97.42
2019-02-12T05:09:31.416Z,97.70
2019-02-12T05:12:03.434Z,97.52
2019-02-12T05:14:32.145Z,97.69
2019-02-12T05:17:00.941Z,98.49
2019-02-12T05:19:29.552Z,98.68
2019-02-12T05:21:58.099Z,99.26
2019-02-12T05:24:26.872Z,99.76
2019-02-12T05:26:55.381Z,100.00
2019-02-12T05:29:23.859Z,100.00
2019-02-12T05:31:52.429Z,100.00
2019-02-12T05:34:21.053Z,100.00
2019-02-12T05:36:49.732Z,100.00
2019-02-12T05:39:18.905Z,100.00
2019-02-12T05:41:47.528Z,100.00
2019-02-12T05:44:16.359Z,100.00
2019-02-12T05:46:45.080Z,100.00
2019-02-12T05:49:13.715Z,100.00
2019-02-12T05:51:42.292Z,100.00
2019-02-12T05:54:10.773Z,100.00
2019-02-12T05:56:39.785Z,100.00
2019-02-12T05:59:08.366Z,100.00
2019-02-12T06:01:38.681Z,100.00
2019-02-12T06:04:07.420Z,99.79
2019-02-12T06:06:35.960Z,99.70
2019-02-12T06:09:05.198Z,99.19
2019-02-12T06:11:33.764Z,99.05
2019-02-12T06:14:02.848Z,99.04
2019-02-12T06:16:31.449Z,98.83
2019-02-12T06:19:00.299Z,98.60
2019-02-12T06:21:28.744Z,98.70
2019-02-12T06:23:57.987Z,98.82
2019-02-12T06:26:26.638Z,98.25
2019-02-12T06:28:55.824Z,98.47
2019-02-12T06:31:24.390Z,98.52
2019-02-12T06:33:53.243Z,98.72
2019-02-12T06:36:21.709Z,98.30
2019-02-12T06:38:50.329Z,98.63
2019-02-12T06:41:18.760Z,97.83
2019-02-12T06:43:47.452Z,97.94
2019-02-12T06:46:16.328Z,98.41
2019-02-12T06:48:45.034Z,98.52
2019-02-12T06:51:13.752Z,98.90
2019-02-12T06:53:42.285Z,98.77
2019-02-12T06:56:11.051Z,98.93
2019-02-12T06:58:39.735Z,99.58
2019-02-12T07:01:08.306Z,99.59
2019-02-12T07:03:53.945Z,100.00
2019-02-12T07:07:10.777Z,100.00
2019-02-12T07:09:56.317Z,100.00
2019-02-12T07:13:25.331Z,100.00
2019-02-12T07:16:14.360Z,100.00
2019-02-12T07:19:34.255Z,100.00
2019-02-12T07:23:21.406Z,100.00
2019-02-12T07:26:57.521Z,100.00
2019-02-12T07:30:18.724Z,100.00
2019-02-12T07:33:49.929Z,99.40
2019-02-12T07:37:43.859Z,99.39
2019-02-12T07:41:32.400Z,98.83
2019-02-12T07:44:54.456Z,99.28
2019-02-12T07:47:56.386Z,99.68
2019-02-12T07:51:29.345Z,99.69
2019-02-12T07:55:23.341Z,98.82
2019-02-12T07:58:38.646Z,98.39
2019-02-12T08:01:31.907Z,98.25
2019-02-12T08:04:46.014Z,97.97
2019-02-12T08:07:53.492Z,97.99
2019-02-12T08:11:05.533Z,98.02
2019-02-12T08:14:07.050Z,97.79
2019-02-12T08:17:34.642Z,98.16
2019-02-12T08:21:03.285Z,97.35
2019-02-12T08:24:19.895Z,97.10
2019-02-12T08:27:38.535Z,97.11
2019-02-12T08:31:14.149Z,96.78
2019-02-12T08:34:33.757Z,96.77
2019-02-12T08:37:51.309Z,96.38
2019-02-12T08:41:06.234Z,96.74
2019-02-12T08:44:48.337Z,95.94
2019-02-12T08:48:20.267Z,96.01
2019-02-12T08:51:27.382Z,95.86
2019-02-12T08:54:44.311Z,96.21
2019-02-12T08:57:56.684Z,96.50
2019-02-12T09:01:46.222Z,95.24
2019-02-12T09:04:59.349Z,95.42
2019-02-12T09:08:53.292Z,95.06
2019-02-12T09:12:28.049Z,95.27
2019-02-12T09:15:59.003Z,95.82
2019-02-12T09:19:04.515Z,95.70
2019-02-12T09:22:38.608Z,95.69
2019-02-12T09:25:41.715Z,96.04
2019-02-12T09:28:40.817Z,96.24
2019-02-12T09:32:15.621Z,95.42
2019-02-12T09:35:30.400Z,95.22
2019-02-12T09:38:44.808Z,94.79
2019-02-12T09:41:41.754Z,94.43
2019-02-12T09:45:29.243Z,93.15
2019-02-12T09:48:55.277Z,92.02
2019-02-12T09:52:30.640Z,90.04
2019-02-12T09:55:51.558Z,88.81
2019-02-12T09:59:23.203Z,88.27
2019-02-12T10:02:15.773Z,88.30
2019-02-12T10:05:23.751Z,86.23
2019-02-12T10:08:33.211Z,85.97
2019-02-12T10:11:41.600Z,84.91
2019-02-12T10:14:39.598Z,84.19
2019-02-12T10:18:07.763Z,83.95
2019-02-12T10:21:02.938Z,83.33
2019-02-12T10:24:29.940Z,82.18
2019-02-12T10:27:20.643Z,82.53
2019-02-12T10:30:48.274Z,82.20
2019-02-12T10:33:16.858Z,81.15
2019-02-12T10:35:45.618Z,81.47
2019-02-12T10:40:43.022Z,80.39
2019-02-12T10:43:11.995Z,79.68
2019-02-12T10:45:40.660Z,79.59
2019-02-12T10:48:09.778Z,77.50
2019-02-12T10:50:38.228Z,77.78
2019-02-12T10:53:08.747Z,77.81
2019-02-12T10:55:37.756Z,77.28
2019-02-12T10:58:06.282Z,77.73
2019-02-12T11:00:35.239Z,76.72
2019-02-12T11:03:04.072Z,76.95
2019-02-12T11:05:34.020Z,76.74
2019-02-12T11:08:02.639Z,75.08
2019-02-12T11:10:31.192Z,74.83
2019-02-12T11:12:59.935Z,75.61
2019-02-12T11:15:29.103Z,75.08
2019-02-12T11:17:57.815Z,75.39
2019-02-12T11:20:26.598Z,74.28
2019-02-12T11:22:55.698Z,73.80
2019-02-12T11:25:24.549Z,72.66
2019-02-12T11:27:53.259Z,71.79
2019-02-12T11:30:21.749Z,72.36
2019-02-12T11:32:50.469Z,71.17
2019-02-12T11:35:19.306Z,73.05
2019-02-12T11:37:48.273Z,72.44
2019-02-12T11:40:17.110Z,71.64
2019-02-12T11:42:45.926Z,72.64
2019-02-12T11:45:14.928Z,71.92
2019-02-12T11:47:45.238Z,72.98
2019-02-12T11:50:14.044Z,74.29
2019-02-12T11:52:42.851Z,74.00
2019-02-12T11:55:11.724Z,74.22
2019-02-12T11:57:40.171Z,74.65
2019-02-12T12:00:11.940Z,74.40
2019-02-12T12:02:42.025Z,75.36
2019-02-12T12:05:10.884Z,74.47
2019-02-12T12:07:39.298Z,75.18
2019-02-12T12:10:08.695Z,75.81
2019-02-12T12:12:37.970Z,77.06
2019-02-12T12:15:08.112Z,77.72
2019-02-12T12:17:37.292Z,77.23
2019-02-12T12:20:06.941Z,77.44
2019-02-12T12:22:35.881Z,77.15
2019-02-12T12:25:05.735Z,76.28
2019-02-12T12:27:34.277Z,74.78
2019-02-12T12:30:02.895Z,76.39
2019-02-12T12:32:31.939Z,76.80
2019-02-12T12:35:00.604Z,76.17
2019-02-12T12:37:29.280Z,76.06
2019-02-12T12:39:57.880Z,75.79
2019-02-12T12:42:27.012Z,77.10
2019-02-12T12:44:57.330Z,77.35
2019-02-12T12:47:25.933Z,78.40
2019-02-12T12:49:54.502Z,78.26
2019-02-12T12:52:23.228Z,78.00
2019-02-12T12:54:58.442Z,79.65
2019-02-12T12:57:22.803Z,78.76
2019-02-12T12:59:51.885Z,78.40
2019-02-12T13:02:20.560Z,78.69
2019-02-12T13:04:49.144Z,78.36
2019-02-12T13:07:17.664Z,77.76
2019-02-12T13:09:46.620Z,78.76
2019-02-12T13:12:15.271Z,79.17
2019-02-12T13:14:43.848Z,78.77
2019-02-12T13:17:12.765Z,78.54
2019-02-12T13:19:41.254Z,77.60
2019-02-12T13:22:09.768Z,77.17
2019-02-12T13:24:38.447Z,75.38
2019-02-12T13:27:07.569Z,76.14
2019-02-12T13:29:36.109Z,73.48
2019-02-12T13:32:04.736Z,73.62
2019-02-12T13:34:34.003Z,72.82
2019-02-12T13:37:03.192Z,72.60
2019-02-12T13:39:32.193Z,71.77
2019-02-12T13:42:00.966Z,71.33
2019-02-12T13:44:29.570Z,72.67
2019-02-12T13:46:58.204Z,73.85
2019-02-12T13:49:26.974Z,72.61
2019-02-12T13:51:55.910Z,73.82
2019-02-12T13:54:24.535Z,73.24
2019-02-12T13:56:53.021Z,73.55
2019-02-12T13:59:21.550Z,73.64
2019-02-12T14:01:50.164Z,74.22
2019-02-12T14:04:18.688Z,75.01
2019-02-12T14:06:47.451Z,75.20
2019-02-12T14:09:16.702Z,75.26
2019-02-12T14:11:45.176Z,74.66
2019-02-12T14:14:13.951Z,74.05
2019-02-12T14:16:42.510Z,74.45
2019-02-12T14:19:11.186Z,74.83
2019-02-12T14:21:39.700Z,75.16
2019-02-12T14:24:08.937Z,75.59
2019-02-12T14:26:38.242Z,75.86
2019-02-12T14:29:06.911Z,76.17
2019-02-12T14:31:35.616Z,76.89
2019-02-12T14:34:04.214Z,76.96
2019-02-12T14:36:33.232Z,77.65
2019-02-12T14:39:04.359Z,77.66
2019-02-12T14:41:33.401Z,78.19
2019-02-12T14:44:02.267Z,78.81
2019-02-12T14:46:30.638Z,79.29
2019-02-12T14:48:59.164Z,80.15
2019-02-12T14:51:27.833Z,80.03
2019-02-12T14:53:56.474Z,80.99
2019-02-12T14:56:25.023Z,80.78
2019-02-12T14:58:53.572Z,80.88
2019-02-12T15:01:22.269Z,81.19
2019-02-12T15:03:50.900Z,80.86
2019-02-12T15:06:19.687Z,81.07
2019-02-12T15:08:48.365Z,81.12
2019-02-12T15:11:17.041Z,80.87
2019-02-12T15:13:45.652Z,81.90
2019-02-12T15:16:14.124Z,81.44
2019-02-12T15:18:42.654Z,81.25
2019-02-12T15:21:11.706Z,82.29
2019-02-12T15:23:40.819Z,82.32
2019-02-12T15:26:09.612Z,82.52
2019-02-12T15:28:38.632Z,82.86
2019-02-12T15:31:07.473Z,84.76
2019-02-12T15:33:36.134Z,84.53
2019-02-12T15:36:04.648Z,83.66
2019-02-12T15:38:33.876Z,83.90
2019-02-12T15:41:02.358Z,83.38
2019-02-12T15:43:30.887Z,83.27
2019-02-12T15:45:59.636Z,84.03
2019-02-12T15:48:28.506Z,83.32
2019-02-12T15:50:57.113Z,83.22
2019-02-12T15:53:25.954Z,84.02
2019-02-12T15:55:54.544Z,83.41
2019-02-12T15:58:23.231Z,83.91
2019-02-12T16:00:51.875Z,83.87
2019-02-12T16:03:21.658Z,83.69
2019-02-12T16:05:50.206Z,84.03
2019-02-12T16:08:18.834Z,84.02
2019-02-12T16:10:47.467Z,84.54
2019-02-12T16:13:16.098Z,85.33
2019-02-12T16:15:47.113Z,84.90
2019-02-12T16:18:16.002Z,84.41
2019-02-12T16:20:44.491Z,84.87
2019-02-12T16:23:12.969Z,84.80
2019-02-12T16:25:41.756Z,86.14
2019-02-12T16:28:10.241Z,85.59
2019-02-12T16:30:39.144Z,85.76
2019-02-12T16:33:07.896Z,86.69
2019-02-12T16:35:36.595Z,86.92
2019-02-12T16:38:05.019Z,87.12
2019-02-12T16:40:33.833Z,86.91
2019-02-12T16:43:02.557Z,87.58
2019-02-12T16:45:46.506Z,87.42
2019-02-12T16:48:15.131Z,87.41
2019-02-12T16:50:44.220Z,87.00
2019-02-12T16:53:12.760Z,87.43
2019-02-12T16:55:41.337Z,86.47
2019-02-12T16:58:09.944Z,87.26
2019-02-12T17:00:38.497Z,86.49
2019-02-12T17:03:06.985Z,87.34
2019-02-12T17:05:35.465Z,86.54
2019-02-12T17:08:04.145Z,87.07
2019-02-12T17:10:32.533Z,87.08
2019-02-12T17:13:01.625Z,86.94
2019-02-12T17:15:30.175Z,86.98
2019-02-12T17:18:08.464Z,87.54
2019-02-12T17:20:37.192Z,87.35
2019-02-12T17:23:07.594Z,87.33
2019-02-12T17:25:37.483Z,86.99
2019-02-12T17:28:06.145Z,87.12
2019-02-12T17:30:34.516Z,86.78
2019-02-12T17:33:03.148Z,86.93
2019-02-12T17:35:31.815Z,87.09
2019-02-12T17:38:00.479Z,87.52
2019-02-12T17:40:29.065Z,87.16
2019-02-12T17:42:57.602Z,87.25
2019-02-12T17:45:27.496Z,87.30
2019-02-12T17:47:56.209Z,87.90
2019-02-12T17:50:26.076Z,87.66
2019-02-12T17:52:55.104Z,88.24
2019-02-12T17:55:23.568Z,88.48
2019-02-12T17:57:52.084Z,88.48
2019-02-12T18:00:26.499Z,89.01
2019-02-12T18:02:55.305Z,89.23
2019-02-12T18:05:23.686Z,89.24
2019-02-12T18:07:52.199Z,89.18
2019-02-12T18:10:22.273Z,90.03
2019-02-12T18:12:51.241Z,90.05
2019-02-12T18:15:19.699Z,90.07
2019-02-12T18:17:48.312Z,90.83
2019-02-12T18:20:17.105Z,90.90
2019-02-12T18:22:45.674Z,90.83
2019-02-12T18:25:14.219Z,90.97
2019-02-12T18:27:42.822Z,91.59
2019-02-12T18:30:14.004Z,91.79
2019-02-12T18:32:42.509Z,91.96
2019-02-12T18:35:11.334Z,92.08
2019-02-12T18:37:40.348Z,92.39
2019-02-12T18:40:13.561Z,92.08
2019-02-12T18:42:42.316Z,92.46
2019-02-12T18:45:14.194Z,92.96
2019-02-12T18:47:42.746Z,92.95
2019-02-12T18:50:11.995Z,92.83
2019-02-12T18:52:40.467Z,93.42
2019-02-12T18:55:10.581Z,93.52
2019-02-12T18:57:39.273Z,93.47
2019-02-12T19:00:15.330Z,94.20
2019-02-12T19:02:44.685Z,93.38
2019-02-12T19:05:13.314Z,93.99
2019-02-12T19:07:42.905Z,93.83
2019-02-12T19:10:12.508Z,94.55
2019-02-12T19:12:41.355Z,94.77
2019-02-12T19:15:15.331Z,94.58
2019-02-12T19:17:48.127Z,94.73
2019-02-12T19:20:16.641Z,94.47
2019-02-12T19:22:46.211Z,94.66
2019-02-12T19:25:16.117Z,94.45
2019-02-12T19:27:44.775Z,94.44
2019-02-12T19:30:16.262Z,94.59
2019-02-12T19:32:45.360Z,94.80
2019-02-12T19:35:14.726Z,94.72
2019-02-12T19:37:45.105Z,94.88
2019-02-12T19:40:13.767Z,94.92
2019-02-12T19:42:43.469Z,95.40
2019-02-12T19:45:12.186Z,95.10
2019-02-12T19:47:40.795Z,94.83
2019-02-12T19:50:09.820Z,94.91
2019-02-12T19:52:39.053Z,95.13
2019-02-12T19:55:07.866Z,94.85
2019-02-12T19:57:36.528Z,94.68
2019-02-12T20:00:07.686Z,94.58
2019-02-12T20:02:36.615Z,94.83
2019-02-12T20:05:06.271Z,94.62
2019-02-12T20:07:35.349Z,94.83
2019-02-12T20:10:05.313Z,94.78
2019-02-12T20:12:33.935Z,94.38
2019-02-12T20:15:02.631Z,94.49
2019-02-12T20:17:31.191Z,94.83
2019-02-12T20:20:00.322Z,94.86
2019-02-12T20:22:28.993Z,94.78
2019-02-12T20:24:58.737Z,94.64
2019-02-12T20:27:35.583Z,94.52
2019-02-12T20:29:59.163Z,94.29
2019-02-12T20:32:28.712Z,94.33
2019-02-12T20:34:57.976Z,93.96
2019-02-12T20:37:27.997Z,94.11
2019-02-12T20:39:57.227Z,94.13
2019-02-12T20:42:25.955Z,93.84
2019-02-12T20:44:54.906Z,94.07
2019-02-12T20:47:24.887Z,93.49
2019-02-12T20:49:53.608Z,93.83
2019-02-12T20:52:22.991Z,93.46
2019-02-12T20:54:51.629Z,93.35
2019-02-12T20:57:20.128Z,92.95
2019-02-12T20:59:48.946Z,93.13
2019-02-12T21:02:17.424Z,93.15
2019-02-12T21:04:46.040Z,93.10
2019-02-12T21:07:15.023Z,93.32
2019-02-12T21:09:43.592Z,93.09
2019-02-12T21:12:12.167Z,92.81
2019-02-12T21:14:40.792Z,92.23
2019-02-12T21:17:09.388Z,91.87
2019-02-12T21:19:37.934Z,92.30
2019-02-12T21:22:06.941Z,91.92
2019-02-12T21:24:35.541Z,92.02
2019-02-12T21:27:04.366Z,92.28
2019-02-12T21:29:32.840Z,92.32
2019-02-12T21:32:01.835Z,92.33
2019-02-12T21:34:30.338Z,92.43
2019-02-12T21:36:59.065Z,92.26
2019-02-12T21:39:27.740Z,92.23
2019-02-12T21:41:56.389Z,92.36
2019-02-12T21:44:25.376Z,92.50
2019-02-12T21:46:54.219Z,92.41
2019-02-12T21:49:23.094Z,92.86
2019-02-12T21:51:51.712Z,92.50
2019-02-12T21:54:21.789Z,92.61
2019-02-12T21:56:50.593Z,92.93
2019-02-12T21:59:19.557Z,92.98
2019-02-12T22:01:50.210Z,93.06
2019-02-12T22:04:18.808Z,93.20
2019-02-12T22:06:47.325Z,93.52
2019-02-12T22:09:15.849Z,93.58
2019-02-12T22:11:45.270Z,94.01
2019-02-12T22:14:13.769Z,93.98
2019-02-12T22:16:42.394Z,94.03
2019-02-12T22:19:10.962Z,94.14
2019-02-12T22:21:39.880Z,94.41
2019-02-12T22:24:08.779Z,94.29
2019-02-12T22:26:37.285Z,94.26
2019-02-12T22:29:06.380Z,94.49
2019-02-12T22:31:35.058Z,94.17
2019-02-12T22:34:03.519Z,94.43
2019-02-12T22:36:32.024Z,94.58
2019-02-12T22:39:00.533Z,94.41
2019-02-12T22:41:28.957Z,94.31
2019-02-12T22:43:57.553Z,93.97
2019-02-12T22:46:26.432Z,94.31
2019-02-12T22:48:55.506Z,94.28
2019-02-12T22:51:24.045Z,94.42
2019-02-12T22:53:52.803Z,94.61
2019-02-12T22:56:22.552Z,94.67
2019-02-12T22:58:51.186Z,94.26
2019-02-12T23:01:28.006Z,94.61
2019-02-12T23:03:57.070Z,94.76
2019-02-12T23:06:25.634Z,94.38
2019-02-12T23:08:55.865Z,94.43
2019-02-12T23:11:24.241Z,94.59
2019-02-12T23:13:52.732Z,94.92
2019-02-12T23:16:21.713Z,94.84
2019-02-12T23:18:50.253Z,95.30
2019-02-12T23:21:19.100Z,95.41
2019-02-12T23:23:47.831Z,95.63
2019-02-12T23:26:16.981Z,95.42
2019-02-12T23:28:45.516Z,95.71
2019-02-12T23:31:14.601Z,95.59
2019-02-12T23:33:43.486Z,95.46
2019-02-12T23:36:11.909Z,95.68
2019-02-12T23:38:40.397Z,96.22
2019-02-12T23:41:08.895Z,96.02
2019-02-12T23:43:38.063Z,95.82
2019-02-12T23:46:06.592Z,95.85
2019-02-12T23:48:35.292Z,95.93
2019-02-12T23:51:03.792Z,96.01
2019-02-12T23:53:32.536Z,96.10
2019-02-12T23:56:01.894Z,96.65
2019-02-12T23:58:30.474Z,96.36
